createdAt,value
2023-09-22T00:01:51.887Z,99802.72
2023-09-22T00:04:18.654Z,99804.88
2023-09-22T00:06:45.529Z,99819.63
2023-09-22T00:09:12.310Z,99815.28
2023-09-22T00:11:38.963Z,99815.53
2023-09-22T00:14:07.241Z,99810.66
2023-09-22T00:16:34.004Z,99804.78
2023-09-22T00:19:00.673Z,99802.69
2023-09-22T00:21:27.448Z,99811.97
2023-09-22T00:23:54.154Z,99813.78
2023-09-22T00:26:20.850Z,99806.06
2023-09-22T00:28:47.520Z,99806.06
2023-09-22T00:31:15.665Z,99810.44
2023-09-22T00:33:42.754Z,99811.00
2023-09-22T00:36:10.757Z,99818.69
2023-09-22T00:38:37.984Z,99813.94
2023-09-22T00:41:04.745Z,99814.25
2023-09-22T00:43:31.454Z,99810.31
2023-09-22T00:45:58.448Z,99810.88
2023-09-22T00:48:29.106Z,99813.72
2023-09-22T00:50:57.022Z,99811.47
2023-09-22T00:53:24.898Z,99804.44
2023-09-22T00:55:53.773Z,99816.78
2023-09-22T00:58:20.695Z,99816.78
2023-09-22T01:00:48.229Z,99819.16
2023-09-22T01:03:15.515Z,99814.00
2023-09-22T01:05:44.117Z,99818.50
2023-09-22T01:08:10.832Z,99815.09
2023-09-22T01:10:38.308Z,99812.84
2023-09-22T01:13:05.402Z,99814.78
2023-09-22T01:15:34.103Z,99816.22
2023-09-22T01:18:00.878Z,99817.34
2023-09-22T01:20:28.584Z,99838.09
2023-09-22T01:22:56.619Z,99843.69
2023-09-22T01:25:23.455Z,99838.38
2023-09-22T01:27:50.229Z,99843.81
2023-09-22T01:30:17.056Z,99844.00
2023-09-22T01:32:43.765Z,99837.81
2023-09-22T01:35:10.497Z,99838.38
2023-09-22T01:37:41.969Z,99839.22
2023-09-22T01:40:12.492Z,99838.38
2023-09-22T01:42:39.239Z,99841.16
2023-09-22T01:45:07.030Z,99840.19
2023-09-22T01:47:33.719Z,99844.69
2023-09-22T01:50:00.580Z,99843.25
2023-09-22T01:52:27.708Z,99844.84
2023-09-22T01:54:54.446Z,99842.84
2023-09-22T01:57:22.462Z,99846.78
2023-09-22T01:59:49.239Z,99829.72
2023-09-22T02:02:16.422Z,99828.00
2023-09-22T02:04:43.392Z,99831.50
2023-09-22T02:07:10.302Z,99824.16
2023-09-22T02:09:37.244Z,99822.22
2023-09-22T02:12:04.209Z,99824.44
2023-09-22T02:14:32.268Z,99825.28
2023-09-22T02:16:59.015Z,99820.50
2023-09-22T02:19:25.716Z,99822.03
2023-09-22T02:21:52.865Z,99824.41
2023-09-22T02:24:19.631Z,99822.28
2023-09-22T02:26:46.409Z,99829.31
2023-09-22T02:29:13.060Z,99825.97
2023-09-22T02:31:41.176Z,99824.56
2023-09-22T02:34:07.872Z,99828.50
2023-09-22T02:36:34.632Z,99829.47
2023-09-22T02:39:01.348Z,99824.28
2023-09-22T02:41:28.075Z,99824.44
2023-09-22T02:43:54.779Z,99827.81
2023-09-22T02:46:21.685Z,99833.44
2023-09-22T02:48:49.998Z,99832.72
2023-09-22T02:51:16.701Z,99844.78
2023-09-22T02:53:43.469Z,99847.56
2023-09-22T02:56:10.149Z,99843.75
2023-09-22T02:58:36.937Z,99850.31
2023-09-22T03:01:07.344Z,99838.38
2023-09-22T03:03:34.233Z,99840.34
2023-09-22T03:06:02.369Z,99838.22
2023-09-22T03:08:29.529Z,99843.16
2023-09-22T03:10:56.615Z,99840.50
2023-09-22T03:13:23.372Z,99828.44
2023-09-22T03:15:50.207Z,99843.31
2023-09-22T03:18:17.004Z,99856.22
2023-09-22T03:20:43.770Z,99845.53
2023-09-22T03:23:11.898Z,99851.72
2023-09-22T03:25:39.252Z,99850.03
2023-09-22T03:28:06.548Z,99846.81
2023-09-22T03:30:33.833Z,99842.50
2023-09-22T03:33:00.650Z,99840.78
2023-09-22T03:35:27.458Z,99831.09
2023-09-22T03:37:54.143Z,99829.41
2023-09-22T03:40:22.296Z,99839.09
2023-09-22T03:42:49.129Z,99839.41
2023-09-22T03:45:15.983Z,99842.75
2023-09-22T03:47:42.952Z,99841.09
2023-09-22T03:50:10.717Z,99834.06
2023-09-22T03:52:37.936Z,99829.69
2023-09-22T03:55:05.492Z,99833.22
2023-09-22T03:57:33.780Z,99830.41
2023-09-22T04:00:00.561Z,99836.88
2023-09-22T04:02:28.714Z,99834.34
2023-09-22T04:04:55.819Z,99844.44
2023-09-22T04:07:22.595Z,99842.50
2023-09-22T04:09:49.484Z,99845.84
2023-09-22T04:12:16.216Z,99846.53
2023-09-22T04:14:44.462Z,99845.25
2023-09-22T04:17:11.414Z,99841.59
2023-09-22T04:19:38.363Z,99844.53
2023-09-22T04:22:05.145Z,99839.75
2023-09-22T04:24:31.936Z,99838.59
2023-09-22T04:26:58.764Z,99843.78
2023-09-22T04:29:25.471Z,99846.59
2023-09-22T04:31:53.575Z,99844.63
2023-09-22T04:34:20.302Z,99852.06
2023-09-22T04:36:46.965Z,99847.75
2023-09-22T04:39:13.831Z,99852.25
2023-09-22T04:41:40.575Z,99846.06
2023-09-22T04:44:07.211Z,99848.44
2023-09-22T04:46:34.035Z,99843.47
2023-09-22T04:49:02.092Z,99837.88
2023-09-22T04:51:29.187Z,99847.16
2023-09-22T04:53:55.876Z,99844.31
2023-09-22T04:56:22.623Z,99846.84
2023-09-22T04:58:49.351Z,99847.53
2023-09-22T05:01:16.033Z,99849.06
2023-09-22T05:03:42.901Z,99842.06
2023-09-22T05:06:10.958Z,99848.56
2023-09-22T05:08:37.718Z,99849.97
2023-09-22T05:11:04.769Z,99861.47
2023-09-22T05:13:31.485Z,99856.81
2023-09-22T05:16:05.315Z,99858.38
2023-09-22T05:18:32.196Z,99867.91
2023-09-22T05:21:00.188Z,99864.81
2023-09-22T05:23:28.750Z,99878.00
2023-09-22T05:25:55.499Z,99881.34
2023-09-22T05:28:22.185Z,99880.53
2023-09-22T05:30:48.952Z,99881.34
2023-09-22T05:33:15.642Z,99879.69
2023-09-22T05:35:42.429Z,99876.59
2023-09-22T05:38:10.835Z,99886.88
2023-09-22T05:40:38.838Z,99883.22
2023-09-22T05:43:08.803Z,99890.38
2023-09-22T05:45:35.598Z,99885.72
2023-09-22T05:48:02.412Z,99893.72
2023-09-22T05:50:29.160Z,99896.28
2023-09-22T05:52:55.919Z,99900.75
2023-09-22T05:55:22.714Z,99906.22
2023-09-22T05:57:50.746Z,99904.41
2023-09-22T06:00:18.037Z,99908.06
2023-09-22T06:02:49.011Z,99907.75
2023-09-22T06:05:15.899Z,99899.38
2023-09-22T06:07:42.597Z,99909.75
2023-09-22T06:10:10.003Z,99917.47
2023-09-22T06:12:37.002Z,99914.50
2023-09-22T06:15:07.177Z,99924.88
2023-09-22T06:17:34.083Z,99923.91
2023-09-22T06:20:00.812Z,99916.19
2023-09-22T06:22:27.555Z,99911.44
2023-09-22T06:24:54.249Z,99906.41
2023-09-22T06:27:21.017Z,99900.34
2023-09-22T06:29:47.721Z,99901.34
2023-09-22T06:32:15.822Z,99893.47
2023-09-22T06:34:42.502Z,99902.19
2023-09-22T06:37:09.654Z,99904.44
2023-09-22T06:39:36.529Z,99914.16
2023-09-22T06:42:03.279Z,99918.22
2023-09-22T06:44:32.110Z,99915.94
2023-09-22T06:46:58.795Z,99918.56
2023-09-22T06:49:26.842Z,99927.50
2023-09-22T06:51:53.541Z,99927.56
2023-09-22T06:54:20.418Z,99923.56
2023-09-22T06:56:50.492Z,99919.44
2023-09-22T06:59:17.803Z,99926.16
2023-09-22T07:01:44.618Z,99928.38
2023-09-22T07:04:11.513Z,99918.38
2023-09-22T07:06:39.652Z,99924.09
2023-09-22T07:09:06.420Z,99917.16
2023-09-22T07:11:33.161Z,99921.91
2023-09-22T07:14:00.057Z,99913.19
2023-09-22T07:16:26.952Z,99925.84
2023-09-22T07:18:53.839Z,99943.16
2023-09-22T07:21:20.558Z,99931.31
2023-09-22T07:23:48.902Z,99935.91
2023-09-22T07:26:15.613Z,99939.34
2023-09-22T07:28:42.280Z,99937.13
2023-09-22T07:31:12.127Z,99949.41
2023-09-22T07:33:39.045Z,99948.09
2023-09-22T07:36:06.409Z,99946.88
2023-09-22T07:38:33.133Z,99944.41
2023-09-22T07:41:01.392Z,99940.41
2023-09-22T07:43:28.382Z,99941.69
2023-09-22T07:45:55.303Z,99949.03
2023-09-22T07:48:22.111Z,99945.53
2023-09-22T07:50:48.814Z,99957.97
2023-09-22T07:53:15.620Z,99958.19
2023-09-22T07:55:42.369Z,99948.94
2023-09-22T07:58:10.778Z,99956.81
2023-09-22T08:00:37.805Z,99963.34
2023-09-22T08:03:05.237Z,99960.97
2023-09-22T08:05:32.057Z,99948.44
2023-09-22T08:07:58.776Z,99962.50
2023-09-22T08:10:25.502Z,99977.75
2023-09-22T08:12:52.361Z,99968.28
2023-09-22T08:15:20.392Z,99967.53
2023-09-22T08:17:47.819Z,99984.13
2023-09-22T08:20:15.258Z,99979.75
2023-09-22T08:22:42.821Z,99990.09
2023-09-22T08:25:10.687Z,99994.06
2023-09-22T08:27:37.853Z,99991.41
2023-09-22T08:30:05.572Z,99991.03
2023-09-22T08:32:33.689Z,99985.59
2023-09-22T08:35:00.370Z,99987.47
2023-09-22T08:37:27.037Z,99981.50
2023-09-22T08:39:53.776Z,99976.56
2023-09-22T08:42:20.678Z,99970.28
2023-09-22T08:44:47.421Z,99986.69
2023-09-22T08:47:14.522Z,99973.38
2023-09-22T10:14:07.524Z,99997.25
2023-09-22T10:16:34.440Z,100001.88
2023-09-22T10:19:01.503Z,100004.56
2023-09-22T10:21:36.479Z,100000.88
2023-09-22T10:24:23.564Z,100011.19
2023-09-22T10:27:09.004Z,100026.75
2023-09-22T10:29:53.515Z,100028.88
2023-09-22T10:32:25.320Z,100035.72
2023-09-22T10:34:55.157Z,100049.19
2023-09-22T10:37:23.325Z,100055.03
2023-09-22T10:39:54.132Z,100059.84
2023-09-22T10:42:21.594Z,100051.19
2023-09-22T10:45:00.919Z,100052.94
2023-09-22T10:47:40.078Z,100050.88
2023-09-22T10:50:21.369Z,100039.22
2023-09-22T10:52:55.000Z,100060.63
2023-09-22T10:55:32.667Z,100055.84
2023-09-22T10:58:00.222Z,100053.16
2023-09-22T11:00:28.801Z,100064.41
2023-09-22T11:03:04.016Z,100066.22
2023-09-22T11:05:40.349Z,100081.81
2023-09-22T11:08:15.082Z,100023.72
2023-09-22T11:10:44.551Z,100030.91
2023-09-22T11:13:11.943Z,100070.22
2023-09-22T11:15:48.574Z,100047.69
2023-09-22T11:18:20.253Z,100066.59
2023-09-22T11:20:49.873Z,100071.03
2023-09-22T11:23:17.596Z,100101.78
2023-09-22T11:25:54.343Z,100054.34
2023-09-22T11:28:21.675Z,100092.16
2023-09-22T11:30:53.169Z,100063.63
2023-09-22T11:33:20.281Z,100130.50
2023-09-22T11:35:53.499Z,100144.75
2023-09-22T11:38:25.542Z,100130.88
2023-09-22T11:40:56.793Z,100133.41
2023-09-22T11:43:45.818Z,100110.69
2023-09-22T11:46:15.465Z,100156.59
2023-09-22T11:48:58.392Z,100143.31
2023-09-22T11:51:41.356Z,100147.88
2023-09-22T11:54:08.244Z,100168.13
2023-09-22T11:56:34.981Z,100158.63
2023-09-22T11:59:06.127Z,100128.75
2023-09-22T12:01:34.790Z,100163.75
2023-09-22T12:04:02.337Z,100144.09
2023-09-22T12:06:29.308Z,100172.38
2023-09-22T12:08:56.015Z,100147.91
2023-09-22T12:11:22.849Z,100161.81
2023-09-22T12:13:49.842Z,100143.81
2023-09-22T12:16:17.467Z,100167.94
2023-09-22T12:18:48.966Z,100182.09
2023-09-22T12:21:15.730Z,100141.47
2023-09-22T12:23:42.506Z,100165.97
2023-09-22T12:26:09.238Z,100137.50
2023-09-22T12:28:36.056Z,100169.63
2023-09-22T12:31:02.852Z,100175.56
2023-09-22T12:33:29.702Z,100153.94
2023-09-22T12:35:57.822Z,100178.88
2023-09-22T12:38:24.676Z,100175.00
2023-09-22T12:40:51.581Z,100159.91
2023-09-22T12:43:18.582Z,100179.88
2023-09-22T12:45:45.397Z,100193.00
2023-09-22T12:48:14.207Z,100197.50
2023-09-22T12:50:40.944Z,100193.34
2023-09-22T12:53:09.151Z,100196.88
2023-09-22T12:55:38.157Z,100209.59
2023-09-22T12:58:04.930Z,100205.56
2023-09-22T13:00:32.529Z,100200.16
2023-09-22T13:03:01.326Z,100200.63
2023-09-22T13:05:28.193Z,100203.22
2023-09-22T13:07:54.903Z,100199.75
2023-09-22T13:10:25.324Z,100209.94
2023-09-22T13:12:52.117Z,100195.31
2023-09-22T13:15:18.949Z,100209.34
2023-09-22T13:17:45.698Z,100193.22
2023-09-22T13:20:12.705Z,100204.81
2023-09-22T13:22:39.477Z,100197.75
2023-09-22T13:25:06.639Z,100209.38
2023-09-22T13:27:34.707Z,100200.78
2023-09-22T13:30:01.410Z,100175.72
2023-09-22T13:32:28.161Z,100187.28
2023-09-22T13:34:55.424Z,100173.16
2023-09-22T13:37:22.164Z,100207.19
2023-09-22T13:39:48.920Z,100206.84
2023-09-22T13:42:15.526Z,100201.78
2023-09-22T13:44:43.592Z,100189.53
2023-09-22T13:47:10.455Z,100219.41
2023-09-22T13:49:37.432Z,100222.38
2023-09-22T13:52:04.529Z,100191.69
2023-09-22T13:54:31.267Z,100220.00
2023-09-22T13:56:58.035Z,100212.47
2023-09-22T13:59:24.892Z,100214.34
2023-09-22T14:01:53.082Z,100221.56
2023-09-22T14:04:21.269Z,100204.28
2023-09-22T14:06:48.056Z,100211.66
2023-09-22T14:09:14.748Z,100219.38
2023-09-22T14:11:41.432Z,100218.97
2023-09-22T14:14:08.198Z,100218.41
2023-09-22T14:16:34.958Z,100214.38
2023-09-22T14:19:03.071Z,100215.22
2023-09-22T14:21:29.955Z,100187.72
2023-09-22T14:23:56.731Z,100175.78
2023-09-22T14:26:23.399Z,100217.69
2023-09-22T14:28:50.139Z,100207.47
2023-09-22T14:31:17.656Z,100185.28
2023-09-22T14:33:44.640Z,100216.72
2023-09-22T14:36:12.832Z,100223.06
2023-09-22T14:38:39.568Z,100230.03
2023-09-22T14:41:09.610Z,100225.00
2023-09-22T14:43:36.440Z,100188.72
2023-09-22T14:46:03.285Z,100241.97
2023-09-22T14:48:30.005Z,100244.28
2023-09-22T14:51:00.695Z,100192.66
2023-09-22T14:53:28.960Z,100255.97
2023-09-22T14:55:58.362Z,100243.38
2023-09-22T14:58:25.110Z,100249.25
2023-09-22T15:00:51.920Z,100243.97
2023-09-22T15:03:18.750Z,100262.81
2023-09-22T15:05:45.645Z,100265.75
2023-09-22T15:08:12.306Z,100269.78
2023-09-22T15:10:40.632Z,100228.75
2023-09-22T15:13:10.395Z,100280.91
2023-09-22T15:15:37.137Z,100261.50
2023-09-22T15:18:04.233Z,100277.06
2023-09-22T15:20:31.905Z,100284.66
2023-09-22T15:22:58.760Z,100266.09
2023-09-22T15:25:28.698Z,100286.72
2023-09-22T15:27:56.883Z,100290.84
2023-09-22T15:30:23.641Z,100284.81
2023-09-22T15:32:50.432Z,100290.38
2023-09-22T15:35:17.349Z,100262.69
2023-09-22T15:37:44.442Z,100277.91
2023-09-22T15:40:12.330Z,100276.34
2023-09-22T15:42:39.085Z,100298.84
2023-09-22T15:45:08.577Z,100308.00
2023-09-22T15:47:35.525Z,100298.56
2023-09-22T15:50:02.582Z,100268.59
2023-09-22T15:52:29.369Z,100305.84
2023-09-22T15:54:56.238Z,100302.94
2023-09-22T15:57:23.074Z,100309.53
2023-09-22T15:59:49.799Z,100311.75
2023-09-22T16:02:18.260Z,100299.59
2023-09-22T16:04:46.420Z,100298.00
2023-09-22T16:07:13.298Z,100291.41
2023-09-22T16:09:40.080Z,100280.78
2023-09-22T16:12:06.896Z,100308.63
2023-09-22T16:14:33.670Z,100324.13
2023-09-22T16:17:02.335Z,100316.28
2023-09-22T16:19:31.371Z,100322.44
2023-09-22T16:21:58.202Z,100291.25
2023-09-22T16:24:24.861Z,100329.50
2023-09-22T16:26:51.555Z,100334.84
2023-09-22T16:29:18.291Z,100330.19
2023-09-22T16:31:45.032Z,100336.84
2023-09-22T16:34:11.718Z,100310.81
2023-09-22T16:36:39.811Z,100343.84
2023-09-22T16:39:06.541Z,100346.97
2023-09-22T16:41:33.395Z,100343.28
2023-09-22T16:44:00.292Z,100339.66
2023-09-22T16:46:27.180Z,100322.63
2023-09-22T16:48:53.926Z,100351.75
2023-09-22T16:51:20.736Z,100349.38
2023-09-22T16:53:48.899Z,100286.75
2023-09-22T16:56:15.778Z,100318.66
2023-09-22T16:58:42.628Z,100297.84
2023-09-22T17:01:09.470Z,100329.66
2023-09-22T17:03:36.309Z,100346.97
2023-09-22T17:06:03.399Z,100323.31
2023-09-22T17:08:30.139Z,100344.16
2023-09-22T17:10:58.220Z,100336.97
2023-09-22T17:13:25.026Z,100352.59
2023-09-22T17:15:51.827Z,100358.66
2023-09-22T17:18:18.608Z,100366.66
2023-09-22T17:20:45.381Z,100365.53
2023-09-22T17:23:12.137Z,100330.34
2023-09-22T17:25:39.216Z,100338.38
2023-09-22T17:28:07.410Z,100373.69
2023-09-22T17:30:34.257Z,100379.84
2023-09-22T17:33:01.084Z,100378.59
2023-09-22T17:35:28.401Z,100383.09
2023-09-22T17:37:55.323Z,100391.38
2023-09-22T17:40:22.268Z,100390.81
2023-09-22T17:42:49.134Z,100402.91
2023-09-22T17:45:17.255Z,100408.25
2023-09-22T17:47:44.001Z,100398.13
2023-09-22T17:50:10.785Z,100406.84
2023-09-22T17:52:38.152Z,100414.16
2023-09-22T17:55:05.738Z,100419.50
2023-09-22T17:57:32.460Z,100414.44
2023-09-22T17:59:59.197Z,100389.75
2023-09-22T18:02:27.562Z,100419.50
2023-09-22T18:04:54.444Z,100417.09
2023-09-22T18:07:21.139Z,100415.41
2023-09-22T18:09:47.878Z,100362.22
2023-09-22T18:12:14.568Z,100421.03
2023-09-22T18:14:41.250Z,100418.16
2023-09-22T18:17:08.085Z,100435.31
2023-09-22T18:19:36.195Z,100431.94
2023-09-22T18:22:03.146Z,100439.53
2023-09-22T18:24:29.808Z,100435.69
2023-09-22T18:26:56.667Z,100444.16
2023-09-22T18:29:23.454Z,100447.34
2023-09-22T18:31:50.287Z,100452.69
2023-09-22T18:34:17.248Z,100455.75
2023-09-22T18:36:45.308Z,100462.22
2023-09-22T18:39:12.072Z,100466.84
2023-09-22T18:41:38.826Z,100452.34
2023-09-22T18:44:05.838Z,100435.00
2023-09-22T18:46:32.592Z,100461.19
2023-09-22T18:48:59.347Z,100454.97
2023-09-22T18:51:26.056Z,100475.94
2023-09-22T18:53:54.234Z,100477.75
2023-09-22T18:56:20.978Z,100442.22
2023-09-22T18:58:47.950Z,100473.06
2023-09-22T19:01:15.096Z,100474.31
2023-09-22T19:03:41.942Z,100470.94
2023-09-22T19:06:08.666Z,100463.84
2023-09-22T19:08:35.351Z,100469.81
2023-09-22T19:11:03.500Z,100472.75
2023-09-22T19:13:30.320Z,100472.16
2023-09-22T19:15:56.972Z,100479.19
2023-09-22T19:18:23.704Z,100484.16
2023-09-22T19:20:50.477Z,100489.34
2023-09-22T19:23:17.179Z,100483.88
2023-09-22T19:25:43.953Z,100485.81
2023-09-22T19:28:12.098Z,100429.25
2023-09-22T19:30:39.849Z,100487.34
2023-09-22T19:33:09.094Z,100494.09
2023-09-22T19:35:39.134Z,100498.00
2023-09-22T19:38:05.807Z,100492.94
2023-09-22T19:40:32.606Z,100503.63
2023-09-22T19:42:59.293Z,100507.25
2023-09-22T19:45:27.324Z,100501.94
2023-09-22T19:47:54.206Z,100522.50
2023-09-22T19:50:21.694Z,100507.78
2023-09-22T19:52:48.539Z,100503.34
2023-09-22T19:55:15.357Z,100539.53
2023-09-22T19:57:42.061Z,100551.16
2023-09-22T20:00:09.572Z,100542.56
2023-09-22T20:02:38.518Z,100546.94
2023-09-22T20:05:06.800Z,100498.66
2023-09-22T20:07:33.484Z,100541.25
2023-09-22T20:10:00.208Z,100538.59
2023-09-22T20:12:26.840Z,100543.91
2023-09-22T20:14:53.482Z,100551.22
2023-09-22T20:17:20.256Z,100549.78
2023-09-22T20:19:48.451Z,100535.94
2023-09-22T20:22:15.183Z,100516.00
2023-09-22T20:24:41.802Z,100553.06
2023-09-22T20:27:08.482Z,100516.63
2023-09-22T20:29:35.303Z,100559.59
2023-09-22T20:32:02.089Z,100530.69
2023-09-22T20:34:29.277Z,100567.00
2023-09-22T20:36:58.503Z,100522.09
2023-09-22T20:39:26.795Z,100565.69
2023-09-22T20:41:53.473Z,100571.63
2023-09-22T20:44:20.179Z,100525.47
2023-09-22T20:46:46.881Z,100560.63
2023-09-22T20:49:13.560Z,100562.69
2023-09-22T20:51:40.210Z,100541.38
2023-09-22T20:54:08.264Z,100552.50
2023-09-22T20:56:35.176Z,100556.16
2023-09-22T20:59:02.070Z,100541.59
2023-09-22T21:01:28.838Z,100559.81
2023-09-22T21:03:55.701Z,100561.22
2023-09-22T21:06:22.634Z,100546.34
2023-09-22T21:08:49.395Z,100561.38
2023-09-22T21:11:17.570Z,100541.38
2023-09-22T21:13:44.270Z,100563.44
2023-09-22T21:16:11.039Z,100558.22
2023-09-22T21:18:37.767Z,100579.63
2023-09-22T21:21:05.357Z,100583.16
2023-09-22T21:23:32.690Z,100579.03
2023-09-22T21:26:02.974Z,100554.69
2023-09-22T21:28:31.241Z,100591.66
2023-09-22T21:30:58.209Z,100575.03
2023-09-22T21:33:24.974Z,100566.59
2023-09-22T21:35:51.619Z,100552.91
2023-09-22T21:38:18.362Z,100586.91
2023-09-22T21:40:45.093Z,100582.19
2023-09-22T21:43:11.859Z,100588.38
2023-09-22T21:45:39.897Z,100591.88
2023-09-22T21:48:07.877Z,100591.38
2023-09-22T21:50:35.035Z,100592.00
2023-09-22T21:53:01.823Z,100590.66
2023-09-22T21:55:28.802Z,100586.31
2023-09-22T21:57:55.521Z,100586.94
2023-09-22T22:00:22.407Z,100562.22
2023-09-22T22:02:50.568Z,100602.28
2023-09-22T22:05:17.503Z,100603.38
2023-09-22T22:07:44.503Z,100616.47
2023-09-22T22:10:11.293Z,100585.72
2023-09-22T22:12:38.205Z,100598.31
2023-09-22T22:15:06.057Z,100614.78
2023-09-22T22:17:32.913Z,100597.69
2023-09-22T22:20:01.895Z,100622.16
2023-09-22T22:22:28.589Z,100620.56
2023-09-22T22:24:55.823Z,100610.91
2023-09-22T22:27:22.984Z,100618.28
2023-09-22T22:29:50.561Z,100615.25
2023-09-22T22:32:17.975Z,100625.53
2023-09-22T22:34:44.986Z,100633.53
2023-09-22T22:37:13.365Z,100618.88
2023-09-22T22:39:40.416Z,100594.03
2023-09-22T22:42:07.200Z,100628.69
2023-09-22T22:44:33.886Z,100603.81
2023-09-22T22:47:00.645Z,100635.69
2023-09-22T22:49:27.421Z,100603.69
2023-09-22T22:51:54.098Z,100636.91
2023-09-22T22:54:22.104Z,100643.28
2023-09-22T22:56:48.748Z,100588.59
2023-09-22T22:59:16.514Z,100642.91
2023-09-22T23:01:43.210Z,100652.72
2023-09-22T23:04:09.929Z,100650.31
2023-09-22T23:06:36.649Z,100648.59
2023-09-22T23:09:03.425Z,100650.88
2023-09-22T23:11:31.554Z,100655.97
2023-09-22T23:13:58.355Z,100655.59
2023-09-22T23:16:25.205Z,100665.84
2023-09-22T23:18:51.918Z,100652.63
2023-09-22T23:21:18.655Z,100631.00
2023-09-22T23:23:45.302Z,100659.75
2023-09-22T23:26:11.983Z,100660.81
2023-09-22T23:28:40.143Z,100671.34
2023-09-22T23:31:07.004Z,100670.88
2023-09-22T23:33:33.778Z,100675.88
2023-09-22T23:36:00.495Z,100685.19
2023-09-22T23:38:27.168Z,100672.88
2023-09-22T23:40:54.263Z,100688.78
2023-09-22T23:43:21.353Z,100651.91
2023-09-22T23:45:50.286Z,100692.06
2023-09-22T23:48:16.942Z,100696.09
2023-09-22T23:50:43.652Z,100649.41
2023-09-22T23:53:10.426Z,100665.81
2023-09-22T23:55:37.284Z,100620.13
2023-09-22T23:58:04.278Z,100693.34
